createdAt,value
2022-12-12T00:01:31.535Z,7.73
2022-12-12T00:04:00.459Z,10.97
2022-12-12T00:06:29.385Z,10.00
2022-12-12T00:08:59.647Z,9.30
2022-12-12T00:11:29.633Z,9.40
2022-12-12T00:13:59.124Z,9.83
2022-12-12T00:16:30.059Z,11.03
2022-12-12T00:18:59.108Z,10.43
2022-12-12T00:21:29.433Z,11.17
2022-12-12T00:24:00.116Z,11.10
2022-12-12T00:26:31.572Z,10.13
2022-12-12T00:29:01.076Z,11.23
2022-12-12T00:31:30.553Z,9.60
2022-12-12T00:33:59.326Z,10.17
2022-12-12T00:36:30.013Z,10.37
2022-12-12T00:39:00.908Z,9.80
2022-12-12T00:41:29.564Z,10.07
2022-12-12T00:43:58.119Z,11.03
2022-12-12T00:46:27.126Z,10.87
2022-12-12T00:48:57.753Z,9.47
2022-12-12T00:51:27.855Z,9.90
2022-12-12T00:53:59.356Z,10.20
2022-12-12T00:56:29.904Z,9.47
2022-12-12T00:58:58.587Z,11.37
2022-12-12T01:01:29.684Z,10.53
2022-12-12T01:03:59.792Z,10.13
2022-12-12T01:06:29.666Z,9.70
2022-12-12T01:09:00.816Z,10.10
2022-12-12T01:11:29.144Z,9.40
2022-12-12T01:13:58.101Z,9.70
2022-12-12T01:16:26.540Z,7.70
2022-12-12T01:18:55.802Z,8.93
2022-12-12T01:21:24.326Z,10.33
2022-12-12T01:23:53.276Z,9.23
2022-12-12T01:26:25.882Z,9.20
2022-12-12T01:28:54.672Z,10.03
2022-12-12T01:31:23.328Z,7.80
2022-12-12T01:33:52.465Z,8.33
2022-12-12T01:36:23.772Z,7.97
2022-12-12T01:38:56.806Z,9.33
2022-12-12T01:41:26.787Z,9.17
2022-12-12T01:43:55.886Z,10.73
2022-12-12T01:46:37.105Z,8.53
2022-12-12T01:49:12.955Z,9.33
2022-12-12T01:51:42.741Z,7.27
2022-12-12T01:54:15.775Z,7.40
2022-12-12T01:56:47.384Z,7.13
2022-12-12T01:59:18.968Z,9.60
2022-12-12T02:01:47.779Z,9.57
2022-12-12T02:04:17.763Z,8.23
2022-12-12T02:06:47.356Z,9.13
2022-12-12T02:09:17.692Z,8.50
2022-12-12T02:11:49.504Z,8.83
2022-12-12T02:14:21.819Z,8.40
2022-12-12T02:17:13.901Z,9.17
2022-12-12T02:20:24.120Z,6.83
2022-12-12T02:23:20.203Z,7.17
2022-12-12T02:26:08.709Z,7.30
2022-12-12T02:29:05.912Z,9.03
2022-12-12T02:31:42.028Z,7.43
2022-12-12T02:34:18.382Z,8.60
2022-12-12T02:36:56.235Z,9.00
2022-12-12T02:39:29.605Z,7.87
2022-12-12T02:42:03.907Z,8.10
2022-12-12T02:44:37.073Z,6.63
2022-12-12T02:47:13.117Z,8.13
2022-12-12T02:49:46.038Z,9.10
2022-12-12T02:52:15.165Z,7.73
2022-12-12T02:54:43.611Z,8.07
2022-12-12T02:57:16.557Z,8.53
2022-12-12T02:59:49.896Z,7.40
2022-12-12T03:02:48.330Z,8.50
2022-12-12T03:05:56.475Z,7.83
2022-12-12T03:08:42.246Z,7.73
2022-12-12T03:11:14.318Z,7.97
2022-12-12T03:13:48.528Z,7.43
2022-12-12T03:16:26.667Z,9.03
2022-12-12T03:19:01.789Z,8.50
2022-12-12T03:21:38.965Z,8.87
2022-12-12T03:24:11.925Z,7.87
2022-12-12T03:26:48.823Z,8.63
2022-12-12T03:29:22.614Z,9.00
2022-12-12T03:31:57.523Z,7.93
2022-12-12T03:34:30.665Z,10.27
2022-12-12T03:37:05.196Z,6.90
2022-12-12T03:39:39.878Z,7.90
2022-12-12T03:42:12.488Z,8.37
2022-12-12T03:44:47.324Z,8.27
2022-12-12T03:47:20.254Z,8.37
2022-12-12T03:49:55.822Z,8.00
2022-12-12T03:52:29.620Z,8.63
2022-12-12T03:55:02.897Z,7.80
2022-12-12T03:57:35.676Z,8.30
2022-12-12T04:00:08.100Z,7.90
2022-12-12T04:02:51.871Z,7.90
2022-12-12T04:05:25.664Z,7.53
2022-12-12T04:07:59.210Z,8.33
2022-12-12T04:10:56.008Z,8.13
2022-12-12T04:13:32.445Z,8.20
2022-12-12T04:16:05.656Z,8.23
2022-12-12T04:18:42.283Z,8.70
2022-12-12T04:21:40.369Z,7.47
2022-12-12T04:24:18.068Z,8.40
2022-12-12T04:26:50.124Z,9.40
2022-12-12T04:29:30.262Z,7.40
2022-12-12T04:32:11.254Z,8.60
2022-12-12T04:34:45.063Z,8.90
2022-12-12T04:37:19.183Z,9.13
2022-12-12T04:39:51.868Z,8.30
2022-12-12T04:42:23.690Z,7.40
2022-12-12T04:44:55.099Z,7.77
2022-12-12T04:47:25.297Z,8.33
2022-12-12T04:49:55.491Z,7.73
2022-12-12T04:52:27.600Z,7.70
2022-12-12T04:55:04.467Z,8.33
2022-12-12T04:57:39.913Z,8.97
2022-12-12T05:00:10.107Z,8.27
2022-12-12T05:02:44.911Z,7.83
2022-12-12T05:05:19.180Z,7.40
2022-12-12T05:07:55.184Z,8.60
2022-12-12T05:10:23.822Z,7.40
2022-12-12T05:12:57.843Z,8.23
2022-12-12T05:15:27.588Z,7.87
2022-12-12T05:18:01.580Z,8.90
2022-12-12T05:20:30.048Z,7.17
2022-12-12T05:23:00.385Z,7.90
2022-12-12T05:25:28.810Z,7.60
2022-12-12T05:27:57.668Z,8.57
2022-12-12T05:30:26.692Z,9.97
2022-12-12T05:32:55.825Z,8.07
2022-12-12T05:35:24.360Z,9.53
2022-12-12T05:37:53.251Z,9.77
2022-12-12T05:40:23.878Z,8.60
2022-12-12T05:42:53.749Z,8.30
2022-12-12T05:45:22.069Z,7.70
2022-12-12T05:47:50.908Z,7.67
2022-12-12T05:50:19.316Z,7.90
2022-12-12T05:52:47.868Z,8.37
2022-12-12T05:55:16.349Z,8.13
2022-12-12T05:57:46.653Z,9.77
2022-12-12T06:00:15.406Z,7.13
2022-12-12T06:02:44.028Z,9.20
2022-12-12T06:05:12.807Z,8.37
2022-12-12T06:07:41.747Z,7.80
2022-12-12T06:10:12.084Z,7.03
2022-12-12T06:12:40.715Z,8.73
2022-12-12T06:15:11.597Z,8.13
2022-12-12T06:17:40.506Z,7.87
2022-12-12T06:20:09.772Z,9.03
2022-12-12T06:22:38.364Z,8.20
2022-12-12T06:25:08.029Z,8.93
2022-12-12T06:27:36.712Z,9.20
2022-12-12T06:30:06.546Z,7.83
2022-12-12T06:32:36.847Z,8.53
2022-12-12T06:35:05.514Z,7.77
2022-12-12T06:37:34.348Z,7.27
2022-12-12T06:40:02.730Z,7.30
2022-12-12T06:42:31.295Z,8.50
2022-12-12T06:44:59.809Z,8.20
2022-12-12T06:47:28.455Z,8.17
2022-12-12T06:49:58.490Z,8.60
2022-12-12T06:52:27.124Z,7.77
2022-12-12T06:54:55.547Z,9.27
2022-12-12T06:57:24.144Z,7.37
2022-12-12T06:59:52.465Z,7.87
2022-12-12T07:02:26.056Z,7.20
2022-12-12T07:04:59.310Z,6.93
2022-12-12T07:07:28.236Z,7.67
2022-12-12T07:09:56.616Z,7.83
2022-12-12T07:12:25.282Z,7.80
2022-12-12T07:14:53.918Z,7.43
2022-12-12T07:17:22.831Z,8.30
2022-12-12T07:19:51.177Z,7.83
2022-12-12T07:22:21.118Z,8.37
2022-12-12T07:24:49.433Z,6.97
2022-12-12T07:27:21.642Z,8.03
2022-12-12T07:29:50.300Z,9.03
2022-12-12T07:32:18.844Z,7.90
2022-12-12T07:34:47.155Z,9.17
2022-12-12T07:37:15.873Z,8.03
2022-12-12T07:39:45.596Z,7.90
2022-12-12T07:42:14.154Z,8.87
2022-12-12T07:44:42.432Z,9.20
2022-12-12T07:47:13.875Z,8.37
2022-12-12T07:49:42.147Z,9.00
2022-12-12T07:52:10.812Z,8.70
2022-12-12T07:54:39.209Z,8.27
2022-12-12T07:57:09.147Z,9.93
2022-12-12T07:59:37.732Z,9.30
2022-12-12T08:02:06.482Z,8.07
2022-12-12T08:04:34.966Z,8.00
2022-12-12T08:07:08.257Z,7.87
2022-12-12T08:09:37.449Z,7.53
2022-12-12T08:12:06.425Z,8.03
2022-12-12T08:14:37.240Z,7.83
2022-12-12T08:17:05.780Z,9.03
2022-12-12T08:19:34.148Z,8.13
2022-12-12T08:22:02.759Z,7.43
2022-12-12T08:24:31.113Z,7.97
2022-12-12T08:26:59.895Z,7.40
2022-12-12T08:29:28.429Z,8.47
2022-12-12T08:31:58.855Z,6.90
2022-12-12T08:34:27.617Z,7.80
2022-12-12T08:36:56.260Z,8.63
2022-12-12T08:39:24.653Z,9.23
2022-12-12T08:41:53.279Z,7.97
2022-12-12T08:44:22.314Z,8.03
2022-12-12T08:46:51.160Z,7.83
2022-12-12T08:49:21.090Z,6.90
2022-12-12T08:51:51.321Z,6.20
2022-12-12T08:54:19.798Z,7.73
2022-12-12T08:56:48.462Z,8.53
2022-12-12T08:59:16.766Z,6.20
2022-12-12T09:01:45.543Z,6.70
2022-12-12T09:04:13.892Z,6.77
2022-12-12T09:06:45.724Z,6.30
2022-12-12T09:09:14.066Z,8.30
2022-12-12T09:11:42.706Z,8.17
2022-12-12T09:14:10.999Z,7.40
2022-12-12T09:16:39.987Z,6.80
2022-12-12T09:19:08.371Z,6.80
2022-12-12T09:21:37.209Z,5.83
2022-12-12T09:24:07.602Z,6.33
2022-12-12T09:26:36.230Z,6.60
2022-12-12T09:29:06.046Z,6.30
2022-12-12T09:31:34.700Z,7.63
2022-12-12T09:34:03.127Z,8.07
2022-12-12T09:36:31.787Z,7.40
2022-12-12T09:39:01.244Z,7.13
2022-12-12T09:41:31.776Z,5.90
2022-12-12T09:44:04.381Z,7.17
2022-12-12T09:46:37.553Z,7.07
2022-12-12T09:49:15.099Z,7.43
2022-12-12T09:51:47.006Z,6.53
2022-12-12T09:54:17.580Z,8.10
2022-12-12T09:57:00.717Z,6.70
2022-12-12T09:59:36.693Z,5.50
2022-12-12T10:02:37.627Z,4.83
2022-12-12T10:05:16.630Z,5.97
2022-12-12T10:07:50.003Z,6.43
2022-12-12T10:10:25.372Z,6.53
2022-12-12T10:12:58.250Z,6.80
2022-12-12T10:15:35.422Z,5.70
2022-12-12T10:18:08.598Z,6.03
2022-12-12T10:20:44.177Z,5.97
2022-12-12T10:23:20.734Z,6.50
2022-12-12T10:25:53.623Z,5.93
2022-12-12T10:28:27.370Z,7.27
2022-12-12T10:31:06.383Z,6.47
2022-12-12T10:33:48.275Z,7.17
2022-12-12T10:36:25.700Z,8.50
2022-12-12T10:39:07.982Z,7.60
2022-12-12T10:41:44.459Z,5.87
2022-12-12T10:44:28.165Z,7.43
2022-12-12T10:47:01.696Z,6.23
2022-12-12T10:49:31.431Z,6.80
2022-12-12T10:52:03.085Z,6.57
2022-12-12T10:54:37.934Z,6.57
2022-12-12T10:57:11.841Z,5.43
2022-12-12T10:59:47.541Z,5.93
2022-12-12T11:02:28.579Z,8.40
2022-12-12T11:05:21.864Z,7.17
2022-12-12T11:08:01.362Z,6.50
2022-12-12T11:10:34.637Z,6.07
2022-12-12T11:13:05.040Z,5.57
2022-12-12T11:15:42.052Z,7.80
2022-12-12T11:18:16.083Z,9.00
2022-12-12T11:20:50.444Z,8.73
2022-12-12T11:23:21.331Z,7.13
2022-12-12T11:25:56.455Z,5.40
2022-12-12T11:28:27.331Z,5.47
2022-12-12T11:30:58.377Z,5.57
2022-12-12T11:33:34.295Z,6.50
2022-12-12T11:36:06.422Z,5.73
2022-12-12T11:38:40.308Z,5.43
2022-12-12T11:41:10.992Z,6.00
2022-12-12T11:43:53.094Z,5.93
2022-12-12T11:46:26.340Z,6.47
2022-12-12T11:49:03.096Z,4.63
2022-12-12T11:51:38.095Z,5.73
2022-12-12T11:54:13.005Z,5.43
2022-12-12T11:56:48.072Z,4.93
2022-12-12T11:59:54.783Z,5.40
2022-12-12T12:02:51.218Z,5.53
2022-12-12T12:05:28.991Z,4.37
2022-12-12T12:08:16.734Z,6.17
2022-12-12T12:11:11.239Z,4.87
2022-12-12T12:13:59.413Z,5.10
2022-12-12T12:16:40.177Z,4.00
2022-12-12T12:19:18.823Z,4.30
2022-12-12T12:21:58.300Z,4.87
2022-12-12T12:24:50.808Z,4.43
2022-12-12T12:27:25.325Z,4.87
2022-12-12T12:30:22.633Z,5.27
2022-12-12T12:33:12.109Z,4.17
2022-12-12T12:35:57.781Z,5.53
2022-12-12T12:38:40.247Z,5.77
2022-12-12T12:41:26.976Z,4.00
2022-12-12T12:44:10.916Z,6.10
2022-12-12T12:46:48.317Z,5.37
2022-12-12T12:49:24.630Z,4.57
2022-12-12T12:52:00.816Z,5.10
2022-12-12T12:54:34.119Z,4.43
2022-12-12T12:57:08.500Z,4.93
2022-12-12T12:59:40.669Z,5.10
2022-12-12T13:02:27.029Z,6.00
2022-12-12T13:05:06.930Z,6.03
2022-12-12T13:07:43.790Z,4.97
2022-12-12T13:10:20.479Z,5.60
2022-12-12T13:12:56.040Z,6.50
2022-12-12T13:15:29.201Z,5.63
2022-12-12T13:18:04.429Z,5.63
2022-12-12T13:20:39.258Z,5.90
2022-12-12T13:23:20.988Z,6.40
2022-12-12T13:25:57.468Z,6.20
2022-12-12T13:28:32.130Z,4.80
2022-12-12T13:31:20.147Z,6.07
2022-12-12T13:33:51.722Z,5.00
2022-12-12T13:36:29.312Z,5.93
2022-12-12T13:39:02.313Z,5.67
2022-12-12T13:41:56.325Z,5.17
2022-12-12T13:44:40.556Z,6.07
2022-12-12T13:47:48.432Z,5.60
2022-12-12T13:50:22.662Z,6.00
2022-12-12T13:53:19.004Z,5.57
2022-12-12T13:55:49.214Z,6.60
2022-12-12T13:58:33.373Z,4.80
2022-12-12T14:01:31.732Z,6.20
2022-12-12T14:04:01.497Z,5.87
2022-12-12T14:06:31.467Z,7.03
2022-12-12T14:09:00.530Z,6.87
2022-12-12T14:11:37.326Z,5.93
2022-12-12T14:14:19.352Z,5.67
2022-12-12T14:16:54.260Z,5.57
2022-12-12T14:19:28.671Z,5.43
2022-12-12T14:21:57.818Z,5.73
2022-12-12T14:24:59.529Z,6.17
2022-12-12T14:28:16.232Z,7.50
2022-12-12T14:30:58.195Z,6.70
2022-12-12T14:37:24.466Z,6.73
2022-12-12T14:40:05.337Z,6.93
2022-12-12T14:43:18.965Z,7.47
2022-12-12T14:45:38.361Z,7.00
2022-12-12T14:48:20.975Z,7.37
2022-12-12T14:50:53.737Z,6.17
2022-12-12T14:53:24.967Z,9.00
2022-12-12T14:55:58.381Z,6.67
2022-12-12T14:58:30.018Z,5.73
2022-12-12T15:01:02.382Z,7.33
2022-12-12T15:03:35.827Z,10.10
2022-12-12T15:06:34.011Z,7.57
2022-12-12T15:09:21.054Z,9.23
2022-12-12T15:11:50.176Z,6.73
2022-12-12T15:14:24.078Z,8.57
2022-12-12T15:16:58.787Z,9.13
2022-12-12T15:19:32.142Z,12.13
2022-12-12T15:22:01.084Z,9.80
2022-12-12T15:24:37.129Z,7.97
2022-12-12T15:27:07.220Z,9.13
2022-12-12T15:29:38.649Z,10.10
2022-12-12T15:32:15.624Z,9.23
2022-12-12T15:34:47.468Z,8.73
2022-12-12T15:37:28.087Z,9.57
2022-12-12T15:40:27.579Z,7.37
2022-12-12T15:42:59.292Z,8.00
2022-12-12T15:45:32.372Z,9.20
2022-12-12T15:48:01.835Z,9.67
2022-12-12T15:50:37.469Z,8.17
2022-12-12T15:53:17.489Z,8.77
2022-12-12T15:55:54.449Z,9.27
2022-12-12T15:58:29.531Z,8.20
2022-12-12T16:01:07.881Z,9.57
2022-12-12T16:03:58.078Z,7.57
2022-12-12T16:06:29.963Z,9.37
2022-12-12T16:09:03.611Z,9.53
2022-12-12T16:11:40.790Z,9.40
2022-12-12T16:14:40.146Z,8.47
2022-12-12T16:17:12.989Z,8.80
2022-12-12T16:19:47.631Z,8.77
2022-12-12T16:22:33.835Z,8.80
2022-12-12T16:25:18.076Z,8.03
2022-12-12T16:27:49.284Z,9.50
2022-12-12T16:30:18.333Z,9.07
2022-12-12T16:32:46.793Z,9.87
2022-12-12T16:35:17.527Z,8.13
2022-12-12T16:37:47.532Z,8.27
2022-12-12T16:40:17.774Z,8.60
2022-12-12T16:42:51.290Z,8.20
2022-12-12T16:45:19.942Z,8.67
2022-12-12T16:47:48.157Z,8.70
2022-12-12T16:50:16.952Z,9.50
2022-12-12T16:52:45.248Z,7.77
2022-12-12T16:55:20.576Z,9.40
2022-12-12T16:57:48.974Z,8.63
2022-12-12T17:00:18.294Z,8.40
2022-12-12T17:02:46.813Z,7.37
2022-12-12T17:05:20.547Z,7.50
2022-12-12T17:07:49.633Z,8.13
2022-12-12T17:10:19.893Z,8.80
2022-12-12T17:12:48.648Z,8.23
2022-12-12T17:15:22.909Z,8.03
2022-12-12T17:17:51.209Z,10.53
2022-12-12T17:20:20.234Z,7.50
2022-12-12T17:22:48.938Z,7.93
2022-12-12T17:25:19.588Z,8.10
2022-12-12T17:27:47.954Z,8.27
2022-12-12T17:30:17.143Z,8.70
2022-12-12T17:35:32.066Z,8.93
2022-12-12T17:38:00.395Z,12.83
2022-12-12T17:40:30.462Z,14.73
2022-12-12T17:42:59.009Z,10.50
2022-12-12T17:45:27.726Z,10.37
2022-12-12T17:47:56.023Z,8.13
2022-12-12T17:50:24.744Z,10.67
2022-12-12T17:52:53.313Z,8.80
2022-12-12T17:55:53.746Z,10.83
2022-12-12T17:58:12.120Z,8.07
2022-12-12T18:00:40.738Z,7.77
2022-12-12T18:03:09.090Z,11.83
2022-12-12T18:05:37.698Z,9.50
2022-12-12T18:08:06.562Z,10.63
2022-12-12T18:10:35.466Z,9.40
2022-12-12T18:13:03.866Z,10.57
2022-12-12T18:15:33.824Z,12.13
2022-12-12T18:18:02.761Z,9.33
2022-12-12T18:20:31.666Z,10.77
2022-12-12T18:23:00.049Z,10.53
2022-12-12T18:25:28.585Z,10.70
2022-12-12T18:27:57.014Z,10.63
2022-12-12T18:30:25.825Z,9.80
2022-12-12T18:33:01.166Z,9.70
2022-12-12T18:35:31.757Z,10.30
2022-12-12T18:38:00.540Z,10.13
2022-12-12T18:40:30.189Z,10.30
2022-12-12T18:42:58.424Z,10.63
2022-12-12T18:45:26.967Z,9.73
2022-12-12T18:47:56.773Z,8.00
2022-12-12T18:50:25.451Z,9.30
2022-12-12T18:52:53.780Z,10.53
2022-12-12T18:55:25.963Z,10.60
2022-12-12T18:57:54.319Z,9.50
2022-12-12T19:00:23.053Z,9.20
2022-12-12T19:02:51.671Z,8.50
2022-12-12T19:05:21.924Z,8.30
2022-12-12T19:07:50.434Z,8.30
2022-12-12T19:10:19.728Z,9.30
2022-12-12T19:12:48.023Z,9.33
2022-12-12T19:15:17.674Z,9.30
2022-12-12T19:17:46.422Z,8.93
2022-12-12T19:20:15.555Z,8.53
2022-12-12T19:22:46.726Z,9.03
2022-12-12T19:25:16.371Z,8.30
2022-12-12T19:27:45.122Z,8.67
2022-12-12T19:30:15.688Z,8.87
2022-12-12T19:32:48.714Z,7.53
2022-12-12T19:35:17.571Z,7.27
2022-12-12T19:37:47.541Z,7.07
2022-12-12T19:40:17.013Z,8.13
2022-12-12T19:42:45.565Z,8.67
2022-12-12T19:45:14.794Z,8.47
2022-12-12T19:47:43.109Z,9.03
2022-12-12T19:50:12.087Z,6.67
2022-12-12T19:52:40.797Z,8.10
2022-12-12T19:55:11.164Z,9.30
2022-12-12T19:57:39.547Z,7.10
2022-12-12T20:00:11.584Z,8.90
2022-12-12T20:02:40.235Z,7.73
2022-12-12T20:05:09.304Z,8.13
2022-12-12T20:07:37.700Z,7.80
2022-12-12T20:10:07.380Z,7.90
2022-12-12T20:12:37.273Z,8.60
2022-12-12T20:15:06.613Z,9.00
2022-12-12T20:17:34.951Z,8.80
2022-12-12T20:20:04.936Z,10.60
2022-12-12T20:22:33.295Z,8.40
2022-12-12T20:25:03.122Z,9.43
2022-12-12T20:27:31.510Z,10.03
2022-12-12T20:30:01.789Z,9.20
2022-12-12T20:32:30.577Z,8.23
2022-12-12T20:34:59.195Z,8.97
2022-12-12T20:37:27.938Z,9.33
2022-12-12T20:39:59.717Z,10.33
2022-12-12T20:42:28.112Z,9.77
2022-12-12T20:44:57.098Z,8.60
2022-12-12T20:47:26.862Z,10.23
2022-12-12T20:49:55.534Z,8.73
2022-12-12T20:52:24.316Z,8.83
2022-12-12T20:54:53.677Z,9.20
2022-12-12T20:57:22.008Z,8.30
2022-12-12T20:59:50.908Z,9.57
2022-12-12T21:02:19.250Z,8.57
2022-12-12T21:04:49.994Z,9.93
2022-12-12T21:07:18.279Z,8.23
2022-12-12T21:09:47.014Z,8.40
2022-12-12T21:12:15.528Z,9.37
2022-12-12T21:14:44.164Z,8.57
2022-12-12T21:17:12.451Z,7.50
2022-12-12T21:19:41.272Z,8.23
2022-12-12T21:22:11.901Z,9.00
2022-12-12T21:24:40.763Z,7.83
2022-12-12T21:27:09.092Z,9.97
2022-12-12T21:29:37.987Z,8.97
2022-12-12T21:32:06.878Z,10.00
2022-12-12T21:34:36.006Z,9.40
2022-12-12T21:37:04.441Z,8.93
2022-12-12T21:39:35.088Z,9.33
2022-12-12T21:42:03.490Z,9.90
2022-12-12T21:44:32.215Z,9.27
2022-12-12T21:47:00.711Z,9.23
2022-12-12T21:49:30.879Z,8.50
2022-12-12T21:52:01.910Z,9.13
2022-12-12T21:54:31.561Z,8.00
2022-12-12T21:57:01.991Z,8.50
2022-12-12T21:59:31.463Z,8.87
2022-12-12T22:02:01.724Z,6.77
2022-12-12T22:04:31.289Z,8.17
2022-12-12T22:07:00.071Z,7.63
2022-12-12T22:09:28.655Z,8.07
2022-12-12T22:12:04.263Z,9.53
2022-12-12T22:14:35.514Z,8.90
2022-12-12T22:17:04.659Z,8.33
2022-12-12T22:19:33.359Z,7.90
2022-12-12T22:22:01.793Z,9.13
2022-12-12T22:24:30.574Z,8.30
2022-12-12T22:26:58.863Z,7.20
2022-12-12T22:29:27.535Z,7.90
2022-12-12T22:31:57.323Z,6.90
2022-12-12T22:34:26.385Z,9.00
2022-12-12T22:36:55.179Z,7.10
2022-12-12T22:39:25.303Z,6.83
2022-12-12T22:41:56.323Z,8.07
2022-12-12T22:44:26.577Z,8.07
2022-12-12T22:46:57.348Z,6.87
2022-12-12T22:49:27.377Z,8.33
2022-12-12T22:51:57.218Z,6.77
2022-12-12T22:54:26.930Z,8.33
2022-12-12T22:56:55.750Z,7.43
2022-12-12T22:59:25.839Z,7.20
2022-12-12T23:01:54.216Z,8.23
2022-12-12T23:04:24.508Z,6.70
2022-12-12T23:06:54.317Z,7.60
2022-12-12T23:09:26.295Z,6.20
2022-12-12T23:11:55.642Z,8.03
2022-12-12T23:14:26.365Z,8.73
2022-12-12T23:16:55.606Z,7.17
2022-12-12T23:19:28.767Z,7.67
2022-12-12T23:21:57.337Z,6.37
2022-12-12T23:24:26.116Z,6.80
2022-12-12T23:26:54.725Z,8.03
2022-12-12T23:29:23.786Z,7.43
2022-12-12T23:31:52.259Z,6.47
2022-12-12T23:34:23.549Z,8.13
2022-12-12T23:36:54.971Z,8.20
2022-12-12T23:39:24.255Z,7.63
2022-12-12T23:41:52.637Z,8.03
2022-12-12T23:44:23.582Z,7.47
2022-12-12T23:46:52.903Z,7.27
2022-12-12T23:49:24.497Z,7.77
2022-12-12T23:51:56.721Z,8.70
2022-12-12T23:54:27.840Z,7.80
2022-12-12T23:56:56.673Z,7.43
2022-12-12T23:59:27.196Z,6.70
